Time;durP1;ratioP1;P1;durP2;ratioP2;P2;SDS_P1;SDS_P2;PMS_P1;PMS_P2;Temp;Humidity;BMP_temperature;BMP_pressure;BME280_temperature;BME280_humidity;BME280_pressure;Samples;Min_cycle;Max_cycle;Signal;HPM_P1;HPM_P2
2022/12/01 00:01:21;;;;;;;11.68;8.40;;;5.70;99.90;;;;;;5092993;28;20601;-66
2022/12/01 00:03:49;;;;;;;17.52;9.55;;;5.70;99.90;;;;;;5082762;28;20551;-66
2022/12/01 00:06:18;;;;;;;17.13;10.50;;;5.70;99.90;;;;;;5073421;28;20241;-72
2022/12/01 00:11:38;;;;;;;14.32;9.27;;;5.80;99.90;;;;;;5077475;28;20207;-66
2022/12/01 00:14:07;;;;;;;23.20;10.45;;;5.70;99.90;;;;;;5073793;28;20241;-66
2022/12/01 00:16:35;;;;;;;18.27;10.25;;;5.70;99.90;;;;;;5072190;28;20207;-66
2022/12/01 00:19:03;;;;;;;19.60;11.48;;;5.60;99.90;;;;;;5093080;28;20195;-66
2022/12/01 00:21:30;;;;;;;19.25;11.38;;;5.70;99.90;;;;;;5091819;28;20595;-65
2022/12/01 00:23:58;;;;;;;21.80;12.30;;;5.70;99.90;;;;;;5086300;28;20207;-65
2022/12/01 00:26:27;;;;;;;20.05;11.55;;;5.70;99.90;;;;;;5075726;28;20216;-65
2022/12/01 00:28:57;;;;;;;19.50;11.80;;;5.60;99.90;;;;;;5091903;28;20199;-65
2022/12/01 00:31:27;;;;;;;18.27;10.98;;;5.60;99.90;;;;;;5076472;28;20214;-64
2022/12/01 00:33:55;;;;;;;23.83;12.35;;;5.60;99.90;;;;;;5075895;28;20207;-65
2022/12/01 00:36:24;;;;;;;20.95;12.07;;;5.60;99.90;;;;;;5091228;28;20650;-65
2022/12/01 00:38:53;;;;;;;19.63;12.25;;;5.60;99.90;;;;;;5092422;28;20218;-65
2022/12/01 00:41:22;;;;;;;20.13;12.10;;;5.60;99.90;;;;;;5092888;28;20206;-66
2022/12/01 00:43:51;;;;;;;20.38;12.90;;;5.60;99.90;;;;;;5091518;28;20203;-65
2022/12/01 00:46:19;;;;;;;21.08;13.52;;;5.50;99.90;;;;;;5074852;28;20201;-65
2022/12/01 00:48:48;;;;;;;24.83;13.70;;;5.50;99.90;;;;;;5093120;28;20688;-65
2022/12/01 00:51:16;;;;;;;22.80;13.25;;;5.50;99.90;;;;;;5093180;28;20202;-65
2022/12/01 00:53:44;;;;;;;22.60;13.13;;;5.50;99.90;;;;;;5089426;28;20203;-65
2022/12/01 00:56:13;;;;;;;18.88;11.93;;;5.60;99.90;;;;;;5073249;28;20233;-65
2022/12/01 00:58:41;;;;;;;25.50;15.07;;;5.60;99.90;;;;;;5072482;28;20223;-65
2022/12/01 01:01:09;;;;;;;21.58;13.55;;;5.60;99.90;;;;;;5073230;28;20204;-65
2022/12/01 01:03:37;;;;;;;26.27;14.38;;;5.50;99.90;;;;;;5082689;28;20192;-65
2022/12/01 01:06:09;;;;;;;25.75;14.60;;;5.50;99.90;;;;;;5092207;28;20204;-65
2022/12/01 01:08:37;;;;;;;29.90;15.15;;;5.50;99.90;;;;;;5083610;28;20626;-65
2022/12/01 01:11:06;;;;;;;27.83;15.50;;;5.50;99.90;;;;;;5077959;28;20553;-65
2022/12/01 01:13:35;;;;;;;24.25;14.50;;;5.50;99.90;;;;;;5090358;28;20215;-65
2022/12/01 01:16:05;;;;;;;20.95;13.63;;;5.50;99.90;;;;;;5092485;28;20206;-65
2022/12/01 01:18:34;;;;;;;23.02;14.48;;;5.50;99.90;;;;;;5091702;28;20691;-65
2022/12/01 01:21:05;;;;;;;27.40;15.05;;;5.50;99.90;;;;;;5090568;28;20199;-65
2022/12/01 01:23:35;;;;;;;23.98;13.80;;;5.40;99.90;;;;;;5092236;28;20591;-65
2022/12/01 01:26:04;;;;;;;22.90;14.35;;;5.40;99.90;;;;;;5088922;28;20235;-65
2022/12/01 01:28:32;;;;;;;25.17;15.60;;;5.40;99.90;;;;;;5071882;28;20196;-65
2022/12/01 01:31:04;;;;;;;22.50;14.52;;;5.40;99.90;;;;;;5084486;28;20649;-65
2022/12/01 01:33:32;;;;;;;26.13;15.52;;;5.30;99.90;;;;;;5072024;28;20184;-65
2022/12/01 01:36:00;;;;;;;27.63;15.70;;;5.30;99.90;;;;;;5082046;28;20206;-65
2022/12/01 01:38:29;;;;;;;26.60;15.73;;;5.30;99.90;;;;;;5092840;28;20610;-65
2022/12/01 01:40:58;;;;;;;21.63;13.60;;;5.30;99.90;;;;;;5092346;28;20269;-65
2022/12/01 01:43:44;;;;;;;28.92;16.88;;;5.30;99.90;;;;;;5092881;28;20198;-66
2022/12/01 01:46:15;;;;;;;28.60;16.27;;;5.30;99.90;;;;;;5092369;28;20204;-66
2022/12/01 01:48:47;;;;;;;24.17;15.90;;;5.30;99.90;;;;;;5077755;28;20643;-66
2022/12/01 01:51:17;;;;;;;32.83;17.38;;;5.30;99.90;;;;;;5071837;28;20200;-67
2022/12/01 01:53:46;;;;;;;27.67;16.35;;;5.30;99.90;;;;;;5072761;28;20195;-66
2022/12/01 01:56:15;;;;;;;23.58;14.90;;;5.30;99.90;;;;;;5071594;28;20776;-66
2022/12/01 01:58:44;;;;;;;25.80;16.52;;;5.20;99.90;;;;;;5072771;28;20613;-65
2022/12/01 02:01:12;;;;;;;26.75;15.65;;;5.20;99.90;;;;;;5072399;28;20619;-66
2022/12/01 02:03:41;;;;;;;26.98;16.67;;;5.20;99.90;;;;;;5072393;28;20264;-65
2022/12/01 02:06:10;;;;;;;28.27;16.33;;;5.20;99.90;;;;;;5083068;28;20200;-65
2022/12/01 02:08:38;;;;;;;35.97;17.80;;;5.30;99.90;;;;;;5072031;28;20654;-65
2022/12/01 02:11:33;;;;;;;30.92;17.80;;;5.30;99.90;;;;;;5079111;28;20592;-65
2022/12/01 02:14:14;;;;;;;27.50;16.75;;;5.30;99.90;;;;;;5094676;28;20188;-65
2022/12/01 02:16:49;;;;;;;25.63;15.90;;;5.30;99.90;;;;;;5095621;28;20194;-65
2022/12/01 02:19:42;;;;;;;30.02;17.58;;;5.30;99.90;;;;;;5095685;28;20692;-65
2022/12/01 02:22:23;;;;;;;26.35;15.93;;;5.30;99.90;;;;;;5094386;28;20219;-66
2022/12/01 02:25:10;;;;;;;28.63;17.20;;;5.30;99.90;;;;;;5092383;28;20208;-65
2022/12/01 02:27:57;;;;;;;25.23;16.70;;;5.20;99.90;;;;;;5090296;28;20657;-65
2022/12/01 02:30:34;;;;;;;27.92;17.15;;;5.20;99.90;;;;;;5096156;28;20219;-65
2022/12/01 02:33:07;;;;;;;31.92;18.75;;;5.20;99.90;;;;;;5083067;28;20301;-65
2022/12/01 02:35:45;;;;;;;30.70;18.13;;;5.20;99.90;;;;;;5095523;28;20196;-65
2022/12/01 02:38:20;;;;;;;37.75;17.60;;;5.10;99.90;;;;;;5095084;28;20210;-65
2022/12/01 02:40:55;;;;;;;23.77;16.17;;;5.20;99.90;;;;;;5077484;28;20236;-66
2022/12/01 02:43:29;;;;;;;29.17;17.83;;;5.10;99.90;;;;;;5094659;28;20187;-65
2022/12/01 02:46:02;;;;;;;35.20;19.08;;;5.10;99.90;;;;;;5094896;28;20186;-66
2022/12/01 02:48:33;;;;;;;29.80;16.90;;;5.10;99.90;;;;;;5075636;28;20196;-66
2022/12/01 02:51:06;;;;;;;29.80;16.95;;;5.00;99.90;;;;;;5078748;28;20192;-65
2022/12/01 02:53:35;;;;;;;29.42;18.10;;;5.00;99.90;;;;;;5084839;28;20194;-65
2022/12/01 02:56:07;;;;;;;31.60;18.35;;;5.00;99.90;;;;;;5062707;28;20658;-65
2022/12/01 02:58:35;;;;;;;27.88;17.50;;;5.10;99.90;;;;;;5077142;28;20196;-65
2022/12/01 03:01:25;;;;;;;29.40;17.30;;;5.10;99.90;;;;;;5075995;28;20189;-65
2022/12/01 03:04:05;;;;;;;30.15;17.38;;;5.10;99.90;;;;;;5091984;28;20592;-65
2022/12/01 03:06:45;;;;;;;29.90;17.25;;;5.20;99.90;;;;;;5077028;28;20191;-65
2022/12/01 03:09:25;;;;;;;29.45;17.88;;;5.10;99.90;;;;;;5096998;28;20206;-65
2022/12/01 03:12:03;;;;;;;30.50;17.63;;;5.10;99.90;;;;;;5098086;28;20187;-65
2022/12/01 03:14:39;;;;;;;32.25;18.27;;;5.10;99.90;;;;;;5096676;28;20207;-65
2022/12/01 03:17:13;;;;;;;27.95;18.30;;;5.10;99.90;;;;;;5098191;28;20247;-65
2022/12/01 03:19:46;;;;;;;35.85;18.48;;;5.10;99.90;;;;;;5079314;28;20669;-65
2022/12/01 03:22:18;;;;;;;33.13;18.23;;;5.10;99.90;;;;;;5062181;28;20247;-65
2022/12/01 03:24:49;;;;;;;27.73;17.20;;;5.10;99.90;;;;;;5076887;28;20180;-66
2022/12/01 03:27:22;;;;;;;36.35;20.35;;;5.10;99.90;;;;;;5070152;28;20220;-66
2022/12/01 03:29:53;;;;;;;32.20;18.52;;;5.10;99.90;;;;;;5076914;28;20661;-66
2022/12/01 03:32:27;;;;;;;32.78;17.70;;;5.10;99.90;;;;;;5080357;28;20184;-65
2022/12/01 03:34:58;;;;;;;35.70;18.80;;;5.10;99.90;;;;;;5096420;28;20530;-65
2022/12/01 03:37:31;;;;;;;30.30;17.48;;;5.00;99.90;;;;;;5089436;28;20211;-65
2022/12/01 03:40:01;;;;;;;26.80;17.02;;;5.00;99.90;;;;;;5091712;28;20225;-65
2022/12/01 03:42:35;;;;;;;27.48;16.02;;;5.00;99.90;;;;;;5093010;28;20210;-65
2022/12/01 03:47:52;;;;;;;25.73;15.00;;;4.90;99.90;;;;;;5078773;28;20299;-65
2022/12/01 03:50:31;;;;;;;30.35;17.90;;;4.90;99.90;;;;;;5077133;28;20200;-66
2022/12/01 03:53:26;;;;;;;26.92;14.60;;;4.90;99.90;;;;;;5078478;28;20265;-66
2022/12/01 03:56:00;;;;;;;19.50;12.88;;;4.90;99.90;;;;;;5077199;28;20317;-65
2022/12/01 03:58:33;;;;;;;22.92;13.65;;;4.80;99.90;;;;;;5095312;28;20198;-65
2022/12/01 04:01:02;;;;;;;18.92;11.93;;;4.80;99.90;;;;;;5095991;28;20529;-65
2022/12/01 04:03:31;;;;;;;19.30;12.05;;;4.80;99.90;;;;;;5093180;28;20207;-66
2022/12/01 04:05:59;;;;;;;18.60;13.13;;;4.80;99.90;;;;;;5076194;28;20208;-65
2022/12/01 04:08:29;;;;;;;16.60;11.60;;;4.80;99.90;;;;;;5074451;28;20560;-66
2022/12/01 04:10:57;;;;;;;18.50;12.10;;;4.80;99.90;;;;;;5088668;28;20207;-65
2022/12/01 04:13:25;;;;;;;21.10;13.35;;;4.80;99.90;;;;;;5082811;28;20196;-65
2022/12/01 04:15:54;;;;;;;21.50;12.18;;;4.70;99.90;;;;;;5088815;28;20207;-66
2022/12/01 04:18:22;;;;;;;20.55;12.38;;;4.80;99.90;;;;;;5075718;28;20200;-66
2022/12/01 04:20:51;;;;;;;20.67;12.65;;;4.80;99.90;;;;;;5076113;28;20207;-66
2022/12/01 04:26:02;;;;;;;16.90;11.57;;;4.80;99.90;;;;;;5078760;28;20224;-66
2022/12/01 04:28:30;;;;;;;20.73;12.85;;;4.80;99.90;;;;;;5074868;28;20204;-66
2022/12/01 04:30:58;;;;;;;18.25;11.98;;;4.70;99.90;;;;;;5092134;28;20199;-66
2022/12/01 04:33:26;;;;;;;23.05;13.25;;;4.70;99.90;;;;;;5072424;28;20188;-66
2022/12/01 04:36:00;;;;;;;21.08;12.52;;;4.80;99.90;;;;;;5087957;28;20265;-66
2022/12/01 04:38:28;;;;;;;22.80;13.10;;;4.80;99.90;;;;;;5092319;28;20557;-66
2022/12/01 04:41:09;;;;;;;20.50;13.10;;;4.80;99.90;;;;;;5077519;28;20543;-66
2022/12/01 04:43:37;;;;;;;21.85;11.93;;;4.80;99.90;;;;;;5085990;28;20203;-66
2022/12/01 04:46:10;;;;;;;20.35;13.25;;;4.70;99.90;;;;;;5076636;28;20196;-66
2022/12/01 04:49:14;;;;;;;22.17;13.75;;;4.70;99.90;;;;;;5074600;28;20188;-65
2022/12/01 04:51:44;;;;;;;21.65;12.25;;;4.70;99.90;;;;;;5074305;28;20535;-66
2022/12/01 04:54:12;;;;;;;23.77;13.93;;;4.70;99.90;;;;;;5088926;28;20199;-66
2022/12/01 04:56:41;;;;;;;19.70;12.70;;;4.70;99.90;;;;;;5094145;28;20191;-66
2022/12/01 04:59:09;;;;;;;23.83;13.00;;;4.70;99.90;;;;;;5076528;28;20219;-66
2022/12/01 05:01:37;;;;;;;20.15;12.18;;;4.70;99.90;;;;;;5093596;28;20213;-66
2022/12/01 05:04:05;;;;;;;20.90;14.23;;;4.70;99.90;;;;;;5093443;28;20203;-67
2022/12/01 05:06:33;;;;;;;21.33;12.80;;;4.70;99.90;;;;;;5092971;28;20583;-67
2022/12/01 05:09:02;;;;;;;22.92;14.18;;;4.70;99.90;;;;;;5083009;28;20200;-66
2022/12/01 05:11:31;;;;;;;20.27;12.43;;;4.70;99.90;;;;;;5092973;28;20572;-67
2022/12/01 05:14:00;;;;;;;22.90;13.48;;;4.70;99.90;;;;;;5094109;28;20191;-66
2022/12/01 05:16:30;;;;;;;19.05;12.52;;;4.70;99.90;;;;;;5095066;28;20688;-66
2022/12/01 05:21:43;;;;;;;19.50;12.55;;;4.70;99.90;;;;;;5073028;28;20235;-66
2022/12/01 05:24:13;;;;;;;21.30;12.63;;;4.70;99.90;;;;;;5072229;28;20218;-66
2022/12/01 05:26:42;;;;;;;21.35;14.02;;;4.70;99.90;;;;;;5090427;28;20229;-66
2022/12/01 05:29:10;;;;;;;20.10;14.02;;;4.80;99.90;;;;;;5072761;28;20204;-66
2022/12/01 05:31:39;;;;;;;20.42;12.68;;;4.80;99.90;;;;;;5085331;28;20199;-66
2022/12/01 05:34:07;;;;;;;19.30;13.50;;;4.80;99.90;;;;;;5074046;28;20204;-66
2022/12/01 05:36:35;;;;;;;24.02;12.25;;;4.70;99.90;;;;;;5082304;28;20225;-66
2022/12/01 05:39:04;;;;;;;16.55;11.52;;;4.70;99.90;;;;;;5092938;28;20213;-66
2022/12/01 05:41:33;;;;;;;24.55;12.70;;;4.70;99.90;;;;;;5094448;28;20211;-66
2022/12/01 05:44:01;;;;;;;16.60;11.45;;;4.70;99.90;;;;;;5094010;28;20206;-66
2022/12/01 05:46:29;;;;;;;19.15;13.25;;;4.70;99.90;;;;;;5093570;28;20210;-66
2022/12/01 05:48:57;;;;;;;18.38;12.10;;;4.70;99.90;;;;;;5084880;28;20253;-66
2022/12/01 05:51:24;;;;;;;23.17;12.43;;;4.70;99.90;;;;;;5073114;28;20570;-66
2022/12/01 05:53:52;;;;;;;20.48;11.73;;;4.80;99.90;;;;;;5073988;28;20291;-66
2022/12/01 05:56:20;;;;;;;19.63;11.65;;;4.90;99.90;;;;;;5075857;28;20207;-65
2022/12/01 05:58:50;;;;;;;20.13;11.32;;;4.90;99.90;;;;;;5088431;28;20196;-66
2022/12/01 06:01:19;;;;;;;19.67;12.77;;;4.90;99.90;;;;;;5090671;28;20226;-66
2022/12/01 06:03:48;;;;;;;15.60;10.57;;;4.90;99.90;;;;;;5092638;28;20199;-67
2022/12/01 06:06:20;;;;;;;16.17;10.95;;;4.90;99.90;;;;;;5091692;28;20274;-69
2022/12/01 06:12:14;;;;;;;15.82;11.00;;;4.80;99.90;;;;;;5099412;28;20255;-68
2022/12/01 06:14:43;;;;;;;18.95;11.45;;;4.90;99.90;;;;;;5090197;28;20282;-69
2022/12/01 06:17:12;;;;;;;19.08;11.43;;;4.80;99.90;;;;;;5079577;28;20651;-70
2022/12/01 06:19:40;;;;;;;17.42;11.05;;;4.80;99.90;;;;;;5090488;28;20208;-69
2022/12/01 06:22:07;;;;;;;17.77;11.50;;;4.90;99.90;;;;;;5084956;28;20215;-69
2022/12/01 06:24:35;;;;;;;21.52;13.65;;;4.80;99.90;;;;;;5082460;28;20261;-69
2022/12/01 06:27:03;;;;;;;14.55;11.05;;;4.70;99.90;;;;;;5082348;28;20231;-69
2022/12/01 06:29:31;;;;;;;21.92;13.57;;;4.80;99.90;;;;;;5084057;28;20200;-69
2022/12/01 06:32:01;;;;;;;17.15;11.45;;;4.80;99.90;;;;;;5074864;28;20204;-69
2022/12/01 06:34:29;;;;;;;17.52;10.77;;;4.80;99.90;;;;;;5074493;28;20196;-69
2022/12/01 06:36:57;;;;;;;17.40;12.10;;;4.80;99.90;;;;;;5081180;28;20196;-69
2022/12/01 06:39:25;;;;;;;17.52;10.65;;;4.80;99.90;;;;;;5073208;28;20204;-70
2022/12/01 06:41:53;;;;;;;21.00;12.32;;;4.80;99.90;;;;;;5073535;28;20207;-69
2022/12/01 06:44:20;;;;;;;23.42;11.70;;;4.80;99.90;;;;;;5071028;28;20207;-69
2022/12/01 06:46:51;;;;;;;22.98;12.93;;;4.80;99.90;;;;;;5075844;28;20596;-69
2022/12/01 06:49:20;;;;;;;20.30;13.15;;;4.70;99.90;;;;;;5090714;28;20199;-68
2022/12/01 06:51:50;;;;;;;20.05;12.23;;;4.70;99.90;;;;;;5082025;28;20199;-68
2022/12/01 06:54:18;;;;;;;19.02;12.05;;;4.70;99.90;;;;;;5093461;28;20204;-67
2022/12/01 06:56:46;;;;;;;18.73;11.25;;;4.70;99.90;;;;;;5078588;28;20208;-68
2022/12/01 06:59:13;;;;;;;17.10;10.32;;;4.70;99.90;;;;;;5095236;28;20217;-67
2022/12/01 07:01:41;;;;;;;18.90;11.57;;;4.70;99.90;;;;;;5095657;28;20222;-68
2022/12/01 07:04:09;;;;;;;22.83;12.73;;;4.70;99.90;;;;;;5095198;28;20195;-67
2022/12/01 07:09:35;;;;;;;17.40;11.13;;;4.70;99.90;;;;;;5067415;28;20294;-67
2022/12/01 07:12:08;;;;;;;19.08;12.80;;;4.70;99.90;;;;;;5094172;28;20214;-66
2022/12/01 07:14:36;;;;;;;16.70;11.00;;;4.70;99.90;;;;;;5096209;28;20626;-65
2022/12/01 07:17:04;;;;;;;21.25;13.48;;;4.70;99.90;;;;;;5089591;28;20195;-66
2022/12/01 07:19:32;;;;;;;18.70;11.63;;;4.70;99.90;;;;;;5097040;28;20199;-67
2022/12/01 07:22:01;;;;;;;32.60;11.95;;;4.70;99.90;;;;;;5086524;28;20220;-67
2022/12/01 07:24:29;;;;;;;24.25;13.05;;;4.70;99.90;;;;;;5084142;28;20206;-68
2022/12/01 07:26:57;;;;;;;26.75;13.93;;;4.70;99.90;;;;;;5087917;28;20230;-68
2022/12/01 07:29:25;;;;;;;18.92;12.25;;;4.80;99.90;;;;;;5085153;28;20201;-68
2022/12/01 07:31:53;;;;;;;18.10;11.23;;;4.80;99.90;;;;;;5077298;28;20207;-66
2022/12/01 07:34:21;;;;;;;23.35;11.77;;;4.80;99.90;;;;;;5071491;28;20536;-67
2022/12/01 07:36:49;;;;;;;21.10;12.65;;;4.80;99.90;;;;;;5077771;28;20200;-66
2022/12/01 07:39:19;;;;;;;18.25;12.10;;;4.80;99.90;;;;;;5077642;28;20563;-67
2022/12/01 07:41:46;;;;;;;20.85;12.38;;;4.80;99.90;;;;;;5075115;28;20212;-67
2022/12/01 07:44:15;;;;;;;18.38;12.70;;;4.80;99.90;;;;;;5075454;28;20207;-67
2022/12/01 07:46:43;;;;;;;18.73;11.70;;;4.90;99.90;;;;;;5079425;28;20204;-66
2022/12/01 07:49:13;;;;;;;18.80;12.20;;;4.80;99.90;;;;;;5091787;28;20199;-67
2022/12/01 07:51:41;;;;;;;20.23;12.38;;;4.80;99.90;;;;;;5094975;28;20202;-65
2022/12/01 07:54:13;;;;;;;17.55;11.40;;;4.70;99.90;;;;;;5093494;28;20204;-67
2022/12/01 07:56:42;;;;;;;17.02;11.40;;;4.70;99.90;;;;;;5083810;28;20196;-67
2022/12/01 07:59:11;;;;;;;16.08;10.95;;;4.80;99.90;;;;;;5071462;28;20192;-67
2022/12/01 08:01:38;;;;;;;19.63;10.73;;;4.80;99.90;;;;;;5084665;28;20204;-67
2022/12/01 08:04:07;;;;;;;19.45;11.80;;;4.80;99.90;;;;;;5075211;28;20196;-67
2022/12/01 08:06:35;;;;;;;21.83;12.43;;;4.80;99.90;;;;;;5094376;28;20207;-67
2022/12/01 08:09:03;;;;;;;20.70;13.25;;;4.80;99.90;;;;;;5084956;28;20192;-67
2022/12/01 08:11:31;;;;;;;20.13;11.63;;;4.80;99.90;;;;;;5075554;28;20203;-67
2022/12/01 08:14:00;;;;;;;17.73;12.25;;;4.80;99.90;;;;;;5087479;28;20207;-66
2022/12/01 08:16:29;;;;;;;17.92;11.55;;;4.80;99.90;;;;;;5081402;28;20830;-67
2022/12/01 08:18:57;;;;;;;16.45;11.65;;;4.80;99.90;;;;;;5073673;28;20211;-67
2022/12/01 08:21:29;;;;;;;27.00;14.52;;;4.80;99.90;;;;;;5086186;28;20211;-68
2022/12/01 08:23:59;;;;;;;20.52;13.77;;;4.80;99.90;;;;;;5077516;28;20658;-67
2022/12/01 08:26:27;;;;;;;19.75;13.13;;;4.80;99.90;;;;;;5088986;28;20219;-67
2022/12/01 08:28:55;;;;;;;22.30;14.63;;;4.90;99.90;;;;;;5085039;28;20219;-68
2022/12/01 08:31:26;;;;;;;18.00;12.07;;;4.90;99.90;;;;;;5079057;28;20192;-66
2022/12/01 08:33:55;;;;;;;17.55;11.75;;;4.90;99.90;;;;;;5081853;28;20195;-67
2022/12/01 08:36:23;;;;;;;26.02;13.50;;;4.90;99.90;;;;;;5085589;28;20195;-67
2022/12/01 08:38:54;;;;;;;23.48;12.93;;;5.00;99.90;;;;;;5086589;28;20279;-67
2022/12/01 08:41:23;;;;;;;27.25;16.75;;;5.00;99.90;;;;;;5075172;28;20230;-67
2022/12/01 08:43:51;;;;;;;25.08;16.60;;;5.00;99.90;;;;;;5079225;28;20200;-67
2022/12/01 08:46:19;;;;;;;21.50;14.05;;;5.10;99.90;;;;;;5079852;28;20188;-67
2022/12/01 08:48:48;;;;;;;23.05;13.13;;;5.10;99.90;;;;;;5074263;28;20204;-67
2022/12/01 08:51:18;;;;;;;25.55;14.25;;;5.00;99.90;;;;;;5081371;28;20196;-67
2022/12/01 08:53:48;;;;;;;21.52;13.45;;;5.00;99.90;;;;;;5080063;28;20284;-67
2022/12/01 08:56:18;;;;;;;21.20;13.95;;;5.00;99.90;;;;;;5077668;28;20546;-67
2022/12/01 08:58:47;;;;;;;18.95;12.68;;;5.00;99.90;;;;;;5084439;28;20192;-68
2022/12/01 09:01:22;;;;;;;18.38;11.50;;;5.00;99.90;;;;;;5073296;28;20283;-67
2022/12/01 09:04:07;;;;;;;17.35;11.45;;;4.90;99.90;;;;;;5076911;28;20208;-66
2022/12/01 09:06:39;;;;;;;19.50;12.52;;;4.90;99.90;;;;;;5085651;28;20195;-67
2022/12/01 09:09:07;;;;;;;17.75;10.45;;;4.90;99.90;;;;;;5079783;28;20191;-69
2022/12/01 09:11:35;;;;;;;29.02;12.95;;;4.80;99.90;;;;;;5090320;28;20196;-67
2022/12/01 09:14:03;;;;;;;21.33;11.32;;;4.80;99.90;;;;;;5075544;28;20204;-66
2022/12/01 09:16:32;;;;;;;17.42;11.77;;;4.90;99.90;;;;;;5079725;28;20191;-67
2022/12/01 09:19:01;;;;;;;18.13;11.13;;;4.90;99.90;;;;;;5069602;28;20199;-67
2022/12/01 09:21:31;;;;;;;23.70;11.90;;;4.90;99.90;;;;;;5076823;28;20215;-66
2022/12/01 09:23:59;;;;;;;21.23;11.63;;;4.90;99.90;;;;;;5074200;28;20240;-66
2022/12/01 09:26:28;;;;;;;22.92;10.85;;;4.80;99.90;;;;;;5090700;28;20224;-67
2022/12/01 09:28:58;;;;;;;20.15;12.13;;;4.80;99.90;;;;;;5091153;28;20656;-67
2022/12/01 09:31:26;;;;;;;19.80;11.80;;;4.90;99.90;;;;;;5094675;28;20199;-67
2022/12/01 09:33:56;;;;;;;19.05;12.07;;;4.90;99.90;;;;;;5084677;28;20207;-67
2022/12/01 09:36:26;;;;;;;22.88;12.73;;;4.90;99.90;;;;;;5072689;28;20246;-67
2022/12/01 09:38:54;;;;;;;20.60;11.93;;;4.90;99.90;;;;;;5072813;28;20195;-68
2022/12/01 09:41:26;;;;;;;22.50;13.25;;;4.90;99.90;;;;;;5072881;28;20224;-68
2022/12/01 09:44:04;;;;;;;17.85;11.48;;;4.90;99.90;;;;;;5089638;28;20634;-66
2022/12/01 09:46:51;;;;;;;24.85;12.50;;;4.90;99.90;;;;;;5091987;28;20187;-66
2022/12/01 09:49:47;;;;;;;18.92;12.00;;;4.90;99.90;;;;;;5088875;28;20262;-67
2022/12/01 09:52:24;;;;;;;20.58;12.75;;;5.00;99.90;;;;;;5094114;28;20185;-67
2022/12/01 09:54:54;;;;;;;26.67;13.35;;;5.00;99.90;;;;;;5085417;28;20267;-67
2022/12/01 09:57:29;;;;;;;22.92;11.20;;;5.00;99.90;;;;;;5087189;28;20718;-66
2022/12/01 09:59:59;;;;;;;18.42;10.70;;;5.10;99.90;;;;;;5076091;28;20187;-65
2022/12/01 10:02:34;;;;;;;19.38;12.00;;;5.10;99.90;;;;;;5084836;28;20215;-65
2022/12/01 10:05:05;;;;;;;22.90;12.70;;;5.10;99.90;;;;;;5094974;28;20203;-67
2022/12/01 10:07:38;;;;;;;19.23;12.02;;;5.20;99.90;;;;;;5086118;28;20192;-66
2022/12/01 10:10:13;;;;;;;18.67;12.40;;;5.20;99.90;;;;;;5083651;28;20199;-66
2022/12/01 10:12:43;;;;;;;25.08;12.00;;;5.20;99.90;;;;;;5079835;28;20184;-66
2022/12/01 10:15:17;;;;;;;19.55;12.40;;;5.20;99.90;;;;;;5075718;28;20214;-65
2022/12/01 10:17:53;;;;;;;21.83;13.00;;;5.30;99.90;;;;;;5080572;28;20190;-66
2022/12/01 10:20:26;;;;;;;17.50;11.15;;;5.30;99.90;;;;;;5074776;28;20195;-65
2022/12/01 10:23:25;;;;;;;22.35;12.90;;;5.30;99.90;;;;;;5093781;28;20223;-66
2022/12/01 10:25:57;;;;;;;21.52;13.55;;;5.30;99.90;;;;;;5095025;28;20227;-66
2022/12/01 10:28:48;;;;;;;21.05;12.23;;;5.30;99.90;;;;;;5090885;28;20188;-67
2022/12/01 10:31:20;;;;;;;21.63;12.38;;;5.30;99.90;;;;;;5077677;28;20558;-65
2022/12/01 10:33:59;;;;;;;30.45;12.50;;;5.30;99.90;;;;;;5078455;28;20200;-65
2022/12/01 10:36:28;;;;;;;21.85;13.10;;;5.30;99.90;;;;;;5079927;28;20637;-65
2022/12/01 10:39:00;;;;;;;22.42;13.35;;;5.20;99.90;;;;;;5081755;28;20212;-65
2022/12/01 10:41:33;;;;;;;23.33;12.88;;;5.20;99.90;;;;;;5079743;28;20187;-65
2022/12/01 10:44:04;;;;;;;27.38;12.90;;;5.20;99.90;;;;;;5097438;28;20552;-65
2022/12/01 10:46:39;;;;;;;22.95;14.60;;;5.20;99.90;;;;;;5080735;28;20215;-66
2022/12/01 10:49:10;;;;;;;21.77;13.30;;;5.20;99.90;;;;;;5086740;28;20187;-65
2022/12/01 10:51:53;;;;;;;24.58;13.75;;;5.10;99.90;;;;;;5088771;28;20514;-65
2022/12/01 10:54:24;;;;;;;30.42;13.32;;;5.10;99.90;;;;;;5094521;28;20198;-65
2022/12/01 10:56:56;;;;;;;23.90;14.05;;;5.10;99.90;;;;;;5096307;28;20183;-66
2022/12/01 10:59:41;;;;;;;25.65;12.20;;;5.10;99.90;;;;;;5097531;28;20209;-65
2022/12/01 11:02:17;;;;;;;23.70;13.15;;;5.10;99.90;;;;;;5082928;28;20211;-66
2022/12/01 11:04:53;;;;;;;20.85;13.27;;;5.10;99.90;;;;;;5082805;28;20214;-65
2022/12/01 11:07:24;;;;;;;26.17;14.95;;;5.10;99.90;;;;;;5087575;28;20638;-65
2022/12/01 11:10:13;;;;;;;22.90;14.60;;;5.10;99.90;;;;;;5091693;28;20247;-66
2022/12/01 11:12:43;;;;;;;20.65;12.88;;;5.10;99.90;;;;;;5095358;28;20204;-66
2022/12/01 11:15:22;;;;;;;24.63;14.15;;;5.10;99.90;;;;;;5080381;28;20661;-66
2022/12/01 11:17:57;;;;;;;25.95;14.15;;;5.20;99.90;;;;;;5092435;28;20196;-66
2022/12/01 11:20:29;;;;;;;30.48;13.32;;;5.20;99.90;;;;;;5083804;28;20198;-66
2022/12/01 11:23:23;;;;;;;25.13;14.52;;;5.20;99.90;;;;;;5087973;28;20223;-66
2022/12/01 11:26:15;;;;;;;29.63;16.50;;;5.30;99.90;;;;;;5087753;28;20234;-66
2022/12/01 11:28:54;;;;;;;40.60;13.50;;;5.20;99.90;;;;;;5091840;28;20207;-65
2022/12/01 11:31:34;;;;;;;26.35;14.38;;;5.20;99.90;;;;;;5088450;28;20203;-66
2022/12/01 11:34:02;;;;;;;23.20;14.32;;;5.20;99.90;;;;;;5075630;28;20195;-65
2022/12/01 11:36:36;;;;;;;22.73;12.68;;;5.30;99.90;;;;;;5084119;28;20195;-66
2022/12/01 11:39:05;;;;;;;23.23;12.65;;;5.30;99.90;;;;;;5095343;28;20249;-66
2022/12/01 11:41:41;;;;;;;18.83;12.95;;;5.20;99.90;;;;;;5095930;28;20195;-66
2022/12/01 11:44:19;;;;;;;27.27;13.95;;;5.30;99.90;;;;;;5077640;28;20195;-66
2022/12/01 11:46:48;;;;;;;21.35;13.45;;;5.30;99.90;;;;;;5094238;28;20194;-67
2022/12/01 11:49:18;;;;;;;23.58;13.57;;;5.40;99.90;;;;;;5095140;28;20203;-66
2022/12/01 11:51:46;;;;;;;22.75;13.80;;;5.40;99.90;;;;;;5093338;28;20199;-67
2022/12/01 11:54:30;;;;;;;20.50;14.13;;;5.40;99.90;;;;;;5087445;28;20215;-67
2022/12/01 11:57:00;;;;;;;20.67;12.02;;;5.40;99.90;;;;;;5070741;28;20663;-65
2022/12/01 11:59:29;;;;;;;19.27;12.13;;;5.40;99.90;;;;;;5080177;28;20208;-65
2022/12/01 12:02:06;;;;;;;24.10;13.30;;;5.30;99.90;;;;;;5080829;28;20584;-66
2022/12/01 12:04:48;;;;;;;24.38;14.45;;;5.30;99.90;;;;;;5081669;28;20188;-65
2022/12/01 12:07:31;;;;;;;22.33;13.77;;;5.40;99.90;;;;;;5085201;28;20191;-66
2022/12/01 12:10:18;;;;;;;20.55;13.35;;;5.40;99.90;;;;;;5080482;28;20196;-67
2022/12/01 12:13:14;;;;;;;23.85;14.10;;;5.30;99.90;;;;;;5083183;28;20191;-65
2022/12/01 12:15:54;;;;;;;23.77;13.50;;;5.40;99.90;;;;;;5081984;28;20196;-65
2022/12/01 12:18:39;;;;;;;22.38;14.00;;;5.30;99.90;;;;;;5084060;28;20191;-65
2022/12/01 12:21:19;;;;;;;23.60;14.90;;;5.20;99.90;;;;;;5079533;28;20202;-66
2022/12/01 12:24:27;;;;;;;23.92;13.30;;;5.20;99.90;;;;;;5083724;28;20229;-65
2022/12/01 12:27:03;;;;;;;28.08;14.77;;;5.10;99.90;;;;;;5078475;28;20234;-65
2022/12/01 12:29:44;;;;;;;28.52;15.20;;;5.20;99.90;;;;;;5083593;28;20195;-66
2022/12/01 12:32:28;;;;;;;24.00;14.52;;;5.20;99.90;;;;;;5081672;28;20641;-66
2022/12/01 12:35:09;;;;;;;27.23;14.85;;;5.20;99.90;;;;;;5081730;28;20241;-66
2022/12/01 12:37:50;;;;;;;25.63;15.35;;;5.20;99.90;;;;;;5087995;28;20605;-67
2022/12/01 12:40:32;;;;;;;19.48;13.23;;;5.20;99.90;;;;;;5082172;28;20228;-66
2022/12/01 12:43:20;;;;;;;22.65;13.77;;;5.20;99.90;;;;;;5082299;28;20684;-65
2022/12/01 12:46:06;;;;;;;23.20;13.48;;;5.20;99.90;;;;;;5079597;28;20196;-65
2022/12/01 12:48:59;;;;;;;23.85;14.38;;;5.20;99.90;;;;;;5073022;28;20192;-66
2022/12/01 12:51:33;;;;;;;20.10;13.70;;;5.30;99.90;;;;;;5080047;28;20188;-66
2022/12/01 12:54:20;;;;;;;20.10;12.68;;;5.20;99.90;;;;;;5081908;28;20195;-65
2022/12/01 12:56:54;;;;;;;21.48;12.55;;;5.20;99.90;;;;;;5085357;28;20198;-65
2022/12/01 12:59:29;;;;;;;18.42;11.65;;;5.20;99.90;;;;;;5078251;28;20250;-65
2022/12/01 13:02:04;;;;;;;21.15;12.77;;;5.30;99.90;;;;;;5087463;28;20314;-65
2022/12/01 13:04:39;;;;;;;27.77;13.50;;;5.30;99.90;;;;;;5091092;28;20537;-65
2022/12/01 13:07:14;;;;;;;23.42;14.48;;;5.30;99.90;;;;;;5093038;28;20765;-66
2022/12/01 13:09:45;;;;;;;24.08;12.68;;;5.40;99.90;;;;;;5093919;28;20201;-66
2022/12/01 13:12:17;;;;;;;22.65;13.25;;;5.40;99.90;;;;;;5091318;28;20210;-66
2022/12/01 13:14:49;;;;;;;23.20;13.25;;;5.40;99.90;;;;;;5085908;28;20195;-66
2022/12/01 13:17:23;;;;;;;24.83;12.10;;;5.50;99.90;;;;;;5070564;28;20195;-66
2022/12/01 13:19:51;;;;;;;21.77;13.88;;;5.40;99.90;;;;;;5086334;28;20558;-66
2022/12/01 13:22:23;;;;;;;29.73;13.07;;;5.30;99.90;;;;;;5088447;28;20222;-66